• Join FlightAware (Why Join?)
  • Login
  • US Flag 
09:41PM EDT


 

Airport Tracker/Info


-or-


 

Live Flight TrackerFlight Track Log ✈ FLG3863 ✈ 28-Jul-2012 ✈ KMSP - CYYZ

Flight Track Log - Related Links

Times and Time Zones

All times are in EDT time to prevent confusion due to time zone crossing. See the FLG3863 flight status page for this flight to view local times or setup timezone preferences in your user account.

Time Position Orientation Groundspeed Altitude Reporting Facility
EDT Latitude Longitude Course Direction KTS MPH feet Rate Location/Type
03:32PM 44.8778 -93.1792 101° East 155 178 1,600  Level FAA TRACON SMA TRACON (SMA)
03:32PM 44.8750 -93.1592 100° East 165 190 1,800 1,320 Climbing FAA TRACON SMA TRACON (SMA)
03:32PM 44.8714 -93.1300 102° East 191 220 2,500 2,100 Climbing FAA TRACON SMA TRACON (SMA)
03:33PM 44.8675 -93.1050 78° East 210 242 3,200 1,860 Climbing FAA TRACON SMA TRACON (SMA)
03:33PM 44.8714 -93.0786 48° Northeast 229 264 3,800 2,100 Climbing FAA TRACON SMA TRACON (SMA)
03:33PM 44.8886 -93.0517 43° Northeast 244 281 4,600 2,460 Climbing FAA TRACON SMA TRACON (SMA)
03:34PM 44.9047 -93.0303 46° Northeast 254 292 5,400 2,400 Climbing FAA TRACON SMA TRACON (SMA)
03:34PM 44.9206 -93.0072 41° Northeast 263 303 6,200 2,400 Climbing FAA TRACON SMA TRACON (SMA)
03:34PM 44.9428 -92.9797 35° Northeast 275 316 7,000 2,340 Climbing FAA TRACON SMA TRACON (SMA)
03:35PM 44.9625 -92.9603 36° Northeast 282 325 7,800 2,520 Climbing FAA TRACON SMA TRACON (SMA)
03:35PM 44.9822 -92.9400 36° Northeast 283 326 8,700 2,760 Climbing FAA TRACON SMA TRACON (SMA)
03:35PM 45.0067 -92.9147 37° Northeast 283 326 9,600 2,220 Climbing FAA TRACON SMA TRACON (SMA)
03:36PM 45.0267 -92.8933 37° Northeast 291 335 10,200 1,140 Climbing FAA TRACON SMA TRACON (SMA)
03:36PM 45.0481 -92.8708 44° Northeast 304 350 10,400 540 Climbing FAA TRACON SMA TRACON (SMA)
03:36PM 45.0742 -92.8353 58° Northeast 338 389 10,600 1,020 Climbing FAA TRACON SMA TRACON (SMA)
03:37PM 45.0903 -92.7986 57° Northeast 355 409 11,100 1,620 Climbing FAA TRACON SMA TRACON (SMA)
03:37PM 45.1069 -92.7625 59° Northeast 358 412 11,700 2,100 Climbing FAA TRACON SMA TRACON (SMA)
03:37PM 45.1269 -92.7161 60° Northeast 359 413 12,500 2,100 Climbing FAA TRACON SMA TRACON (SMA)
03:38PM 45.1425 -92.6786 58° Northeast 360 414 13,100 1,860 Climbing FAA TRACON SMA TRACON (SMA)
03:38PM 45.1625 -92.6325 59° Northeast 359 413 13,800 1,740 Climbing FAA TRACON SMA TRACON (SMA)
03:38PM 45.1786 -92.5944 57° Northeast 363 418 14,300 1,380 Climbing FAA TRACON SMA TRACON (SMA)
03:39PM 45.1956 -92.5569 62° Northeast 367 422 14,700 1,020 Climbing FAA TRACON SMA TRACON (SMA)
03:39PM 45.2106 -92.5169 58° Northeast 372 428 15,000 1,140 Climbing FAA TRACON SMA TRACON (SMA)
03:39PM 45.2322 -92.4683 58° Northeast 378 435 15,500 1,320 Climbing FAA TRACON SMA TRACON (SMA)
03:40PM 45.2497 -92.4292 57° Northeast 381 438 15,900 1,020 Climbing FAA TRACON SMA TRACON (SMA)
03:40PM 45.2675 -92.3900 58° Northeast 384 442 16,200 1,140 Climbing FAA TRACON SMA TRACON (SMA)
03:40PM 45.2894 -92.3403 58° Northeast 387 445 16,700 1,260 Climbing FAA TRACON SMA TRACON (SMA)
03:41PM 45.3072 -92.3003 52° Northeast 389 448 17,100 1,200 Climbing FAA TRACON SMA TRACON (SMA)
03:41PM 45.3328 -92.2533 57° Northeast 390 449 17,500 1,020 Climbing FAA TRACON SMA TRACON (SMA)
03:41PM 45.3511 -92.2128 55° Northeast 393 452 17,800 1,020 Climbing FAA TRACON SMA TRACON (SMA)
03:42PM 45.3703 -92.1736 54° Northeast 394 453 18,200 1,140 Climbing FAA TRACON SMA TRACON (SMA)
03:42PM 45.3953 -92.1253 54° Northeast 395 455 18,600 1,200 Climbing FAA TRACON SMA TRACON (SMA)
03:42PM 45.4150 -92.0864 52° Northeast 394 453 19,000 1,200 Climbing FAA TRACON SMA TRACON (SMA)
03:43PM 45.4358 -92.0483 67° East 395 455 19,400 1,080 Climbing FAA TRACON SMA TRACON (SMA)
03:43PM 45.4517 -91.9961 53° Northeast 393 452 19,800 1,020 Climbing Minneapolis Center
03:44PM 45.5178 -91.8711 56° Northeast 395 455 20,900 840 Climbing Minneapolis Center
03:45PM 45.5803 -91.7386 59° Northeast 401 461 21,600 660 Climbing Minneapolis Center
03:46PM 45.6408 -91.5969 93° East 412 474 22,300 720 Climbing Minneapolis Center
03:47PM 45.6319 -91.3917 104° East 445 512 23,200 720 Climbing Minneapolis Center
03:48PM 45.6031 -91.2317 104° East 448 516 23,900 660 Climbing Minneapolis Center
03:49PM 45.5725 -91.0586 104° East 449 517 24,600 660 Climbing Minneapolis Center
03:50PM 45.5411 -90.8847 105° East 452 520 25,300 720 Climbing Minneapolis Center
03:51PM 45.5022 -90.6758 104° East 455 524 26,100 720 Climbing Minneapolis Center
03:53PM 45.4706 -90.5017 105° East 456 525 26,800 600 Climbing Minneapolis Center
03:54PM 45.4381 -90.3289 105° East 455 524 27,400 480 Climbing Minneapolis Center
03:55PM 45.4047 -90.1542 105° East 458 527 27,900 480 Climbing Minneapolis Center
03:56PM 45.3714 -89.9794 105° East 459 528 28,400 480 Climbing Minneapolis Center
03:57PM 45.3311 -89.7689 105° East 462 532 29,000 480 Climbing Minneapolis Center
03:58PM 45.2969 -89.5917 106° East 465 535 29,500 480 Climbing Minneapolis Center
03:59PM 45.2617 -89.4150 105° East 467 537 30,000 480 Climbing Minneapolis Center
04:00PM 45.2275 -89.2372 106° East 469 540 30,500 480 Climbing Minneapolis Center
04:01PM 45.1925 -89.0608 106° East 469 540 31,000 240 Climbing Minneapolis Center
04:02PM 45.1567 -88.8828 106° East 471 542 31,000  Level Minneapolis Center
04:03PM 45.1114 -88.6650 106° East 479 551 31,000  Level Minneapolis Center
04:04PM 45.0767 -88.4925 106° East 485 558 31,000  Level Minneapolis Center
04:05PM 45.0386 -88.3064 106° East 491 565 31,000  Level Minneapolis Center
04:06PM 44.9997 -88.1206 107° East 494 568 31,000  Level Minneapolis Center
04:07PM 44.9525 -87.8967 106° East 496 571 31,000  Level Minneapolis Center
04:08PM 44.9142 -87.7119 107° East 494 568 31,000  Level Minneapolis Center
04:09PM 44.8747 -87.5253 108° East 496 571 31,000  Level Minneapolis Center
04:10PM 44.8325 -87.3383 107° East 501 577 31,000  Level Minneapolis Center
04:11PM 44.7922 -87.1539 107° East 497 572 31,000  Level Minneapolis Center
04:12PM 44.7433 -86.9331 107° East 496 571 31,000  Level Minneapolis Center
04:13PM 44.7061 -86.7639 107° East 496 571 31,000  Level Minneapolis Center
04:14PM 44.6614 -86.5650 108° East 497 572 31,000  Level Minneapolis Center
04:15PM 44.6200 -86.3847 108° East 493 567 31,000  Level Minneapolis Center
04:16PM 44.5708 -86.1683 108° East 494 568 31,000  Level Minneapolis Center
04:17PM 44.5289 -85.9892 108° East 493 567 31,000  Level Minneapolis Center
04:18PM 44.4875 -85.8106 108° East 491 565 31,000  Level Minneapolis Center
04:19PM 44.4453 -85.6331 108° East 487 560 31,000  Level Minneapolis Center
04:20PM 44.3958 -85.4206 108° East 484 557 31,000  Level Minneapolis Center
04:22PM 44.3542 -85.2428 108° East 484 557 31,000  Level Minneapolis Center
04:23PM 44.3117 -85.0658 109° East 483 556 31,000  Level Minneapolis Center
04:24PM 44.2686 -84.8903 109° East 482 555 31,000  Level Minneapolis Center
04:25PM 44.2256 -84.7147 109° East 481 554 31,000  Level Minneapolis Center
04:26PM 44.1747 -84.5053 109° East 478 550 31,000  Level Minneapolis Center
04:27PM 44.1308 -84.3311 132° Southeast 478 550 31,000  Level Minneapolis Center
04:27PM 44.1000 -84.2833 103° East 480 552 31,000  Level Toronto Center
04:28PM 44.0667 -84.0833 108° East 480 552 31,000  Level Toronto Center
04:29PM 44.0433 -83.9817 109° East 479 551 31,000  Level Minneapolis Center
04:30PM 43.9992 -83.8075 109° East 480 552 31,000  Level Minneapolis Center
04:31PM 43.9464 -83.5983 117° Southeast 479 551 31,000  Level Minneapolis Center
04:32PM 43.8667 -83.3833 105° East 480 552 31,000  Level Toronto Center
04:33PM 43.8333 -83.2167 111° Southeast 480 552 31,000  Level Toronto Center
04:34PM 43.7833 -83.0333 112° Southeast 480 552 31,000 -300 Level Toronto Center
04:35PM 43.7333 -82.8667 112° Southeast 480 552 30,400 -840 Descending Toronto Center
04:36PM 43.6833 -82.7000 104° East 490 564 29,400 -720 Descending Toronto Center
04:37PM 43.6500 -82.5167 105° East 490 564 29,000 -240 Descending Toronto Center
04:38PM 43.6236 -82.3839 111° Southeast 477 549 29,000  Level Cleveland Center
04:39PM 43.5800 -82.2281 111° Southeast 456 525 29,000  Level Cleveland Center
04:40PM 43.5364 -82.0722 110° East 441 507 29,000 -840 Level Cleveland Center
04:41PM 43.4833 -81.8667 112° Southeast 440 506 27,200 -1,560 Descending Toronto Center
04:42PM 43.4333 -81.7000 117° Southeast 460 529 25,600 -1,800 Descending Toronto Center
04:43PM 43.3833 -81.5667 104° East 460 529 23,700 -2,100 Descending Toronto Center
04:44PM 43.3500 -81.3833 90° East 450 518 21,500 -2,100 Descending Toronto Center
04:45PM 43.3500 -81.2167 82° East 440 506 19,500 -2,100 Descending Toronto Center
04:46PM 43.3667 -81.0500 80° East 420 483 17,400 -2,100 Descending Toronto Center
04:47PM 43.3833 -80.9167 71° East 380 437 15,400 -1,800 Descending Toronto Center
04:48PM 43.4167 -80.7833 90° East 360 414 13,900 -1,560 Descending Toronto Center
04:49PM 43.4167 -80.6667 79° East 320 368 12,300 -1,560 Descending Toronto Center
04:50PM 43.4333 -80.5500 79° East 300 345 10,800 -1,680 Descending Toronto Center
04:51PM 43.4500 -80.4333 90° East 280 322 9,000 -1,740 Descending Toronto Center
04:52PM 43.4500 -80.3500 77° East 270 311 7,400 -1,020 Descending Toronto Center
04:53PM 43.4667 -80.2500 75° East 250 288 7,000 -240 Descending Toronto Center
04:54PM 43.4833 -80.1667 77° East 250 288 7,000 -360 Level Toronto Center
04:55PM 43.5000 -80.0667 75° East 250 288 6,300 -1,140 Descending Toronto Center
04:56PM 43.5167 -79.9833 71° East 240 276 4,800 -1,500 Descending Toronto Center
04:57PM 43.5333 -79.9167 77° East 230 265 3,400 -900 Descending Toronto Center
04:58PM 43.5500 -79.8167 55° Northeast 220 253 3,000 -420 Descending Toronto Center
04:59PM 43.5833 -79.7500 36° Northeast 210 242 2,600 -660 Descending Toronto Center
05:00PM 43.6333 -79.7000 65° Northeast 190 219 1,700 -840 Descending Toronto Center
05:01PM 43.6500 -79.6500 36° Northeast 150 173 1,000 -600 Descending Toronto Center
05:02PM 43.6667 -79.6333 36° Northeast 130 150 600 -420 Descending Toronto Center